Weather at Lotnisko Olsztyn-Dajtki

Public forecast

Using degrees Celsius for public forecast. Weather courtesy of forecast.io.

Closest aviation weather report (METAR) to Lotnisko Olsztyn-Dajtki

Closest report is Olsztyn-Mazury Airport, 25.5 nm (47.3 km) SE. Retrieved 2020/12/05 01:30 UTC (0 seconds ago):

EPSY 050130Z 14008KT 090V170 CAVOK 03/01 Q1008

Closest aviation forecast (TAF) to Lotnisko Olsztyn-Dajtki

Closest forecast is Khrabrovo Airport, 67.4 nm (124.7 km) N. Retrieved 2020-12-05 00:21 UTC (1 hour ago):

TAF UMKK 042300Z 0500/0524 13006G12MPS 9999 BKN040 TEMPO 0506/0515 14008G15MPS SCT016 BECMG 0515/0517 5000 BR BKN011 TEMPO 0517/0524 BKN005